McVille, North Dakota
Current Conditions -  °F | °C
As of 12:58 AM on Thursday 27 Nov 2014 (Local Time) from KRDR Reporting Station
Clear Clear  
Wind Chill: -14°   Ceiling: Unl
Heat Index: -14°   Visibility: 10mi
Dew Point: -19°   Wind: 1mph
Humidity: 77%   Direction: 280°W
Pressure: 30.55"   Gusts: NA
Location:  47.76°N, 98.18°W
Report Text: KRDR 270658Z AUTO 28001KT 10SM CLR M25/M28 A3055 RMK AO2 SLP380 T12541283
Loading
Personal Weather Stations






























Interactive Weather Map New forecast layout! Learn more

10-Day Weather Forecast

Advertisements
Track Severe Weather on mobile